Time;durP1;ratioP1;P1;durP2;ratioP2;P2;SDS_P1;SDS_P2;PMS_P1;PMS_P2;Temp;Humidity;BMP_temperature;BMP_pressure;BME280_temperature;BME280_humidity;BME280_pressure;Samples;Min_cycle;Max_cycle;Signal;HPM_P1;HPM_P2
2023/08/17 00:00:19;;;;;;;10.10;9.40;;;;;;;26.48;56.29;95188.09;6210506;27;109737;-67
2023/08/17 00:03:22;;;;;;;9.88;9.18;;;;;;;26.49;55.88;95186.97;6210441;28;109818;-67
2023/08/17 00:06:25;;;;;;;9.75;9.07;;;;;;;26.46;56.12;95187.66;6231943;27;109839;-67
2023/08/17 00:09:28;;;;;;;9.70;9.00;;;;;;;26.45;56.59;95196.81;6226574;27;109806;-67
2023/08/17 00:12:31;;;;;;;9.90;9.10;;;;;;;26.43;55.95;95196.38;6221643;27;109351;-68
2023/08/17 00:15:36;;;;;;;9.77;9.07;;;;;;;26.43;56.06;95194.47;6209489;28;109855;-67
2023/08/17 00:18:39;;;;;;;9.70;9.00;;;;;;;26.42;56.25;95190.22;6208720;28;109994;-67
2023/08/17 00:21:42;;;;;;;9.50;8.90;;;;;;;26.42;56.06;95192.91;6221719;27;110058;-67
2023/08/17 00:24:45;;;;;;;10.00;9.30;;;;;;;26.44;56.12;95189.88;6214285;28;110099;-67
2023/08/17 00:27:48;;;;;;;9.73;9.02;;;;;;;26.43;56.28;95188.31;6222714;27;110032;-67
2023/08/17 00:30:53;;;;;;;9.50;8.80;;;;;;;26.44;56.13;95189.88;6219472;27;113187;-67
2023/08/17 00:33:56;;;;;;;9.25;8.55;;;;;;;26.46;56.14;95191.13;6207788;28;110070;-66
2023/08/17 00:36:59;;;;;;;9.13;8.52;;;;;;;26.47;56.52;95191.91;6220725;28;109959;-67
2023/08/17 00:40:04;;;;;;;9.38;8.68;;;;;;;26.47;56.37;95191.91;6210612;28;110158;-66
2023/08/17 00:43:08;;;;;;;9.65;8.95;;;;;;;26.45;56.55;95194.91;6208414;27;110227;-67
2023/08/17 00:46:13;;;;;;;8.95;8.25;;;;;;;26.44;56.62;95187.19;6218888;27;109523;-68
2023/08/17 00:49:17;;;;;;;9.15;8.55;;;;;;;26.44;56.60;95190.66;6217060;28;109746;-66
2023/08/17 00:52:20;;;;;;;8.68;8.07;;;;;;;26.44;56.10;95184.50;6211482;28;109976;-65
2023/08/17 00:55:23;;;;;;;9.00;8.40;;;;;;;26.43;55.93;95189.09;6219496;27;110106;-68
2023/08/17 00:58:28;;;;;;;8.88;8.27;;;;;;;26.44;56.04;95185.28;6214158;28;110123;-66
2023/08/17 01:01:32;;;;;;;8.70;8.10;;;;;;;26.43;56.61;95173.00;6220986;27;110087;-67
2023/08/17 01:04:36;;;;;;;8.32;7.72;;;;;;;26.43;56.22;95180.25;6220041;27;109810;-67
2023/08/17 01:07:39;;;;;;;9.03;8.33;;;;;;;26.43;55.98;95182.94;6221212;28;110089;-68
2023/08/17 01:10:53;;;;;;;8.60;8.00;;;;;;;26.42;56.20;95178.69;6230561;28;110204;-67
2023/08/17 01:14:02;;;;;;;8.65;8.05;;;;;;;26.42;56.39;95173.31;6213435;28;109701;-67
2023/08/17 01:17:13;;;;;;;8.80;8.20;;;;;;;26.41;56.49;95175.22;6202335;28;109964;-67
2023/08/17 01:20:17;;;;;;;7.95;7.35;;;;;;;26.43;56.04;95185.63;6212627;28;109866;-67
2023/08/17 01:23:22;;;;;;;8.10;7.50;;;;;;;26.43;56.22;95177.56;6212672;28;109890;-67
2023/08/17 01:26:25;;;;;;;7.90;7.40;;;;;;;26.42;56.14;95179.47;6219096;28;110433;-66
2023/08/17 01:29:29;;;;;;;8.20;7.60;;;;;;;26.41;56.24;95177.13;6212058;27;109952;-68
2023/08/17 01:32:38;;;;;;;8.25;7.70;;;;;;;26.42;55.90;95162.59;6229262;27;110963;-67
2023/08/17 01:36:01;;;;;;;8.40;7.80;;;;;;;26.41;56.49;95166.41;6216540;28;109915;-67
2023/08/17 01:39:07;;;;;;;8.50;7.90;;;;;;;26.40;55.94;95176.34;6225791;27;109775;-67
2023/08/17 01:42:13;;;;;;;8.30;7.70;;;;;;;26.40;56.16;95173.66;6223986;27;109918;-67
2023/08/17 01:45:17;;;;;;;7.97;7.47;;;;;;;26.39;56.23;95174.78;6212387;28;110411;-67
2023/08/17 01:48:20;;;;;;;7.80;7.30;;;;;;;26.40;56.20;95167.50;6217287;28;110146;-67
2023/08/17 01:51:24;;;;;;;7.60;7.00;;;;;;;26.40;56.40;95170.19;6205002;28;110354;-69
2023/08/17 01:54:28;;;;;;;7.70;7.20;;;;;;;26.39;56.07;95174.00;6216827;28;110006;-68
2023/08/17 01:57:31;;;;;;;8.20;7.60;;;;;;;26.36;56.24;95169.25;6212120;28;110963;-68
2023/08/17 02:00:34;;;;;;;8.10;7.50;;;;;;;26.37;56.39;95171.59;6209621;27;109822;-67
2023/08/17 02:03:37;;;;;;;7.80;7.20;;;;;;;26.35;56.22;95167.69;6221462;27;109734;-68
2023/08/17 02:06:40;;;;;;;7.82;7.32;;;;;;;26.36;55.82;95169.25;6211779;28;109796;-67
2023/08/17 02:09:45;;;;;;;7.60;7.10;;;;;;;26.36;56.09;95169.25;6234996;28;109500;-68
2023/08/17 02:12:48;;;;;;;7.50;7.00;;;;;;;26.38;56.08;95172.41;6219417;28;109785;-67
2023/08/17 02:15:51;;;;;;;7.70;7.10;;;;;;;26.37;55.86;95170.81;6212179;28;110014;-69
2023/08/17 02:18:54;;;;;;;7.20;6.70;;;;;;;26.36;55.67;95172.72;6228683;28;111009;-68
2023/08/17 02:21:57;;;;;;;7.70;7.10;;;;;;;26.36;55.88;95166.56;6236636;27;109734;-68
2023/08/17 02:25:01;;;;;;;7.40;6.90;;;;;;;26.35;55.50;95163.13;6220124;27;109919;-69
2023/08/17 02:28:05;;;;;;;7.60;7.00;;;;;;;26.33;56.13;95159.97;6226516;27;110164;-66
2023/08/17 02:31:08;;;;;;;7.30;6.80;;;;;;;26.34;55.62;95160.75;6220512;27;109881;-67
2023/08/17 02:34:11;;;;;;;6.97;6.47;;;;;;;26.32;55.51;95163.78;6207039;28;109924;-68
2023/08/17 02:37:15;;;;;;;7.18;6.68;;;;;;;26.34;55.97;95160.75;6218207;28;109927;-68
2023/08/17 02:40:19;;;;;;;7.65;7.05;;;;;;;26.33;56.07;95156.50;6235257;27;109583;-67
2023/08/17 02:43:22;;;;;;;7.20;6.70;;;;;;;26.32;56.12;95153.03;6213858;28;110812;-68
2023/08/17 02:46:25;;;;;;;6.93;6.43;;;;;;;26.31;55.99;95166.78;6202825;28;109926;-68
2023/08/17 02:49:29;;;;;;;6.97;6.47;;;;;;;26.25;56.11;95156.28;6230038;28;109576;-68
2023/08/17 02:52:32;;;;;;;7.00;6.50;;;;;;;26.28;55.15;95152.13;6211727;27;109830;-68
2023/08/17 02:55:36;;;;;;;6.40;6.00;;;;;;;26.27;55.55;95151.34;6220099;28;110021;-67
2023/08/17 02:58:40;;;;;;;6.45;6.05;;;;;;;26.29;55.62;95159.06;6216769;27;109777;-67
2023/08/17 03:01:45;;;;;;;6.78;6.28;;;;;;;26.27;55.20;95154.03;6224905;27;109969;-66
2023/08/17 03:04:48;;;;;;;6.70;6.20;;;;;;;26.30;55.50;95149.91;6219701;27;111171;-68
2023/08/17 03:07:51;;;;;;;6.40;6.00;;;;;;;26.32;55.18;95157.63;6234408;28;109767;-68
2023/08/17 03:10:56;;;;;;;7.10;6.50;;;;;;;26.28;55.20;95152.13;6220847;27;109879;-69
2023/08/17 03:14:01;;;;;;;6.70;6.20;;;;;;;26.25;55.76;95153.59;6224387;27;109755;-66
2023/08/17 03:17:04;;;;;;;6.97;6.40;;;;;;;26.25;55.28;95158.94;6209991;27;113746;-67
2023/08/17 03:20:08;;;;;;;6.05;5.65;;;;;;;26.24;55.75;95145.88;6224532;28;111706;-67
2023/08/17 03:23:12;;;;;;;6.20;5.80;;;;;;;26.22;54.94;95151.56;6230482;27;110364;-67
2023/08/17 03:26:17;;;;;;;6.20;5.80;;;;;;;26.24;55.43;95153.91;6218349;28;109977;-67
2023/08/17 03:29:20;;;;;;;6.30;5.90;;;;;;;26.23;55.13;95155.81;6220903;27;110641;-68
2023/08/17 03:32:23;;;;;;;6.15;5.75;;;;;;;26.23;54.90;95158.50;6203546;27;109875;-67
2023/08/17 03:35:26;;;;;;;5.90;5.50;;;;;;;26.21;55.00;95158.06;6217029;28;109827;-68
2023/08/17 03:38:29;;;;;;;5.70;5.30;;;;;;;26.21;54.64;95163.41;6223969;28;110995;-68
2023/08/17 03:41:34;;;;;;;6.10;5.70;;;;;;;26.20;54.95;95161.81;6222699;28;110216;-69
2023/08/17 03:44:37;;;;;;;6.10;5.70;;;;;;;26.20;54.81;95156.44;6222008;27;109805;-68
2023/08/17 03:47:40;;;;;;;6.07;5.67;;;;;;;26.21;54.95;95160.72;6217707;27;112014;-69
2023/08/17 03:50:44;;;;;;;5.80;5.40;;;;;;;26.21;54.59;95166.09;6210093;28;110178;-68
2023/08/17 03:53:47;;;;;;;5.90;5.50;;;;;;;26.22;54.37;95164.19;6206185;28;110034;-66
2023/08/17 03:56:51;;;;;;;5.90;5.50;;;;;;;26.21;55.16;95167.97;6206542;28;109860;-68
2023/08/17 03:59:54;;;;;;;5.70;5.30;;;;;;;26.20;54.56;95161.81;6225493;28;110096;-67
2023/08/17 04:02:57;;;;;;;5.90;5.50;;;;;;;26.20;54.61;95161.81;6237508;27;109808;-67
2023/08/17 04:06:05;;;;;;;5.30;5.00;;;;;;;26.25;54.80;95166.22;6199455;28;109919;-68
2023/08/17 04:09:09;;;;;;;5.80;5.30;;;;;;;26.18;53.47;95174.00;6209270;28;109701;-69
2023/08/17 04:12:13;;;;;;;7.40;5.85;;;;;;;25.89;49.44;95172.94;6217519;28;109963;-60
2023/08/17 04:15:16;;;;;;;7.55;5.63;;;;;;;25.72;49.19;95173.06;6212658;27;109944;-62
2023/08/17 04:18:19;;;;;;;5.77;4.40;;;;;;;25.65;48.97;95165.53;6198401;28;110497;-62
2023/08/17 04:21:23;;;;;;;6.00;5.47;;;;;;;25.63;48.87;95165.06;6209103;28;109803;-63
2023/08/17 04:24:26;;;;;;;10.30;9.30;;;;;;;25.58;47.86;95173.31;6215199;28;109972;-61
2023/08/17 04:27:30;;;;;;;8.67;7.50;;;;;;;25.48;47.76;95165.63;6221723;27;110259;-61
2023/08/17 04:30:33;;;;;;;5.78;5.00;;;;;;;25.42;47.62;95169.63;6219063;28;109796;-61
2023/08/17 04:33:36;;;;;;;6.10;4.55;;;;;;;25.44;47.42;95159.34;6231205;27;109804;-61
2023/08/17 04:36:40;;;;;;;5.25;4.75;;;;;;;25.43;46.70;95163.16;6213150;27;110352;-61
2023/08/17 04:39:43;;;;;;;5.50;4.57;;;;;;;25.43;46.36;95163.16;6208761;28;109992;-61
2023/08/17 04:42:47;;;;;;;5.40;4.30;;;;;;;25.50;47.16;95159.94;6208387;28;111052;-62
2023/08/17 04:45:51;;;;;;;5.57;4.38;;;;;;;25.53;46.96;95160.06;6214465;28;110099;-61
2023/08/17 04:48:54;;;;;;;5.97;5.20;;;;;;;25.56;46.86;95166.72;6223472;27;110884;-61
2023/08/17 04:51:57;;;;;;;6.37;4.77;;;;;;;25.28;46.14;95161.78;6197579;28;110987;-61
2023/08/17 04:55:00;;;;;;;6.90;5.40;;;;;;;25.20;46.24;95159.13;6208693;28;110342;-61
2023/08/17 04:58:05;;;;;;;4.72;4.18;;;;;;;24.88;46.42;95161.34;6209308;28;109978;-62
2023/08/17 05:01:08;;;;;;;5.90;4.22;;;;;;;24.55;46.42;95160.28;6232913;27;110217;-63
2023/08/17 05:04:11;;;;;;;9.30;5.28;;;;;;;24.81;46.52;95153.00;6222494;27;109942;-61
2023/08/17 05:07:14;;;;;;;7.53;5.20;;;;;;;24.83;46.42;95153.47;6230808;27;109788;-63
2023/08/17 05:10:17;;;;;;;5.00;4.50;;;;;;;24.98;46.37;95152.94;6223424;27;109832;-61
2023/08/17 05:13:21;;;;;;;7.20;4.20;;;;;;;25.04;46.21;95151.66;6228601;27;109943;-62
2023/08/17 05:16:25;;;;;;;6.28;4.07;;;;;;;25.07;45.77;95159.03;6223649;28;109736;-62
2023/08/17 05:19:28;;;;;;;5.18;4.20;;;;;;;25.14;45.84;95155.06;6216528;28;112914;-62
2023/08/17 05:22:31;;;;;;;6.35;4.25;;;;;;;25.03;45.75;95157.31;6209370;27;109938;-63
2023/08/17 05:25:34;;;;;;;8.82;5.15;;;;;;;25.05;46.37;95161.25;6197259;28;109526;-62
2023/08/17 05:28:38;;;;;;;14.38;10.55;;;;;;;25.18;46.52;95159.44;6208978;28;110837;-63
2023/08/17 05:31:41;;;;;;;12.63;8.57;;;;;;;25.26;46.33;95164.00;6215390;27;113985;-64
2023/08/17 05:34:45;;;;;;;20.17;10.15;;;;;;;25.34;46.35;95165.03;6219129;27;110302;-64
2023/08/17 05:37:48;;;;;;;19.77;9.30;;;;;;;25.45;46.84;95160.94;6213732;28;109975;-63
2023/08/17 05:40:55;;;;;;;14.82;9.25;;;;;;;25.49;46.91;95169.88;6215244;27;110335;-63
2023/08/17 05:44:00;;;;;;;16.58;9.50;;;;;;;25.54;46.94;95166.22;6218135;28;109804;-63
2023/08/17 05:47:03;;;;;;;15.13;9.48;;;;;;;25.62;47.05;95166.19;6222421;27;110075;-65
2023/08/17 05:50:07;;;;;;;12.23;9.15;;;;;;;25.68;47.49;95172.13;6204896;28;111135;-64
2023/08/17 05:53:11;;;;;;;19.37;9.50;;;;;;;25.78;47.47;95173.66;6211933;28;110170;-63
2023/08/17 05:56:14;;;;;;;13.25;8.90;;;;;;;25.82;47.55;95166.53;6212145;28;110145;-64
2023/08/17 05:59:18;;;;;;;17.27;8.82;;;;;;;25.86;47.42;95172.78;6201953;28;110941;-63
2023/08/17 06:02:21;;;;;;;14.07;8.52;;;;;;;25.91;47.61;95169.94;6222910;27;109875;-64
2023/08/17 06:05:26;;;;;;;14.82;7.90;;;;;;;25.95;48.01;95173.53;6219222;27;109666;-65
2023/08/17 06:08:29;;;;;;;13.18;7.85;;;;;;;26.01;47.50;95172.25;6212139;28;109927;-64
2023/08/17 06:11:33;;;;;;;13.45;7.20;;;;;;;26.07;47.50;95178.22;6215288;27;109719;-64
2023/08/17 06:14:37;;;;;;;11.00;7.20;;;;;;;26.17;46.72;95173.22;6221299;28;110071;-65
2023/08/17 06:17:40;;;;;;;9.23;5.50;;;;;;;26.04;46.61;95174.25;6225131;27;110157;-67
2023/08/17 06:20:46;;;;;;;11.63;5.50;;;;;;;26.19;46.27;95170.97;6215020;27;110053;-63
2023/08/17 06:23:49;;;;;;;8.77;4.70;;;;;;;26.34;45.66;95174.97;6244308;27;110915;-63
2023/08/17 06:26:52;;;;;;;8.02;5.40;;;;;;;26.45;46.02;95172.66;6232022;27;109766;-62
2023/08/17 06:29:57;;;;;;;6.10;5.35;;;;;;;26.58;46.25;95174.28;6213941;27;110027;-62
2023/08/17 06:33:00;;;;;;;8.97;6.10;;;;;;;26.64;46.31;95169.50;6219497;27;110074;-68
2023/08/17 06:36:03;;;;;;;10.37;5.60;;;;;;;26.71;46.70;95164.38;6209938;27;109387;-66
2023/08/17 06:39:06;;;;;;;6.85;5.70;;;;;;;26.76;45.99;95173.00;6212572;28;110174;-68
2023/08/17 06:42:10;;;;;;;11.63;6.20;;;;;;;26.84;46.35;95174.81;6226701;28;110986;-68
2023/08/17 06:45:18;;;;;;;16.73;7.30;;;;;;;26.87;47.33;95181.41;6215564;27;109740;-65
2023/08/17 06:48:21;;;;;;;18.40;9.43;;;;;;;26.80;47.59;95178.50;6229867;28;109813;-69
2023/08/17 06:51:24;;;;;;;10.38;7.20;;;;;;;26.72;47.29;95180.16;6213920;27;109806;-68
2023/08/17 06:54:27;;;;;;;8.05;6.80;;;;;;;26.59;47.73;95178.53;6209960;28;109940;-69
2023/08/17 06:57:30;;;;;;;7.18;6.47;;;;;;;26.62;48.12;95177.06;6202203;28;111136;-69
2023/08/17 07:00:35;;;;;;;7.47;6.20;;;;;;;26.61;47.73;95178.19;6226944;28;110392;-68
2023/08/17 07:03:38;;;;;;;10.90;6.80;;;;;;;26.63;47.20;95175.97;6234554;27;109963;-68
2023/08/17 07:06:43;;;;;;;9.60;6.45;;;;;;;26.70;47.12;95177.00;6212084;27;111077;-68
2023/08/17 07:09:46;;;;;;;9.30;6.60;;;;;;;26.73;47.69;95173.69;6229414;27;110123;-69
2023/08/17 07:12:49;;;;;;;7.57;6.97;;;;;;;26.84;47.56;95179.38;6235546;27;109808;-69
2023/08/17 07:15:54;;;;;;;7.57;6.50;;;;;;;26.89;47.53;95176.50;6219129;27;110026;-69
2023/08/17 07:18:57;;;;;;;8.40;6.20;;;;;;;26.98;47.08;95171.81;6200833;28;109593;-68
2023/08/17 07:22:00;;;;;;;6.78;6.07;;;;;;;26.96;47.20;95170.56;6227969;28;109772;-69
2023/08/17 07:25:03;;;;;;;6.90;6.20;;;;;;;26.95;47.27;95164.41;6228357;27;109990;-69
2023/08/17 07:28:07;;;;;;;7.30;6.60;;;;;;;26.90;47.17;95169.22;6210737;28;109743;-68
2023/08/17 07:31:11;;;;;;;6.78;5.70;;;;;;;27.03;45.75;95168.09;6218077;27;109922;-69
2023/08/17 07:34:14;;;;;;;7.10;6.50;;;;;;;26.97;46.63;95161.41;6213857;27;109688;-68
2023/08/17 07:37:18;;;;;;;6.35;5.75;;;;;;;26.76;46.24;95159.59;6210309;28;109818;-69
2023/08/17 07:40:21;;;;;;;7.68;5.95;;;;;;;26.74;46.56;95163.72;6214474;28;109730;-63
2023/08/17 07:43:24;;;;;;;6.00;5.50;;;;;;;26.85;46.19;95165.63;6223899;27;109831;-63
2023/08/17 07:46:28;;;;;;;7.45;5.70;;;;;;;26.93;44.85;95160.50;6214279;27;109955;-63
2023/08/17 07:49:31;;;;;;;6.72;5.70;;;;;;;27.10;44.45;95160.28;6210190;28;109503;-63
2023/08/17 07:52:35;;;;;;;6.00;5.40;;;;;;;27.04;44.97;95161.63;6204268;28;110079;-64
2023/08/17 07:55:38;;;;;;;5.97;5.10;;;;;;;27.03;44.44;95154.69;6205511;28;111237;-63
2023/08/17 07:58:41;;;;;;;8.50;5.80;;;;;;;26.98;44.39;95152.22;6223261;27;110319;-63
2023/08/17 08:01:46;;;;;;;5.73;5.20;;;;;;;27.14;43.29;95139.69;6234588;27;110340;-61
2023/08/17 08:04:49;;;;;;;6.68;5.00;;;;;;;27.34;42.83;95148.78;6218706;27;110846;-62
2023/08/17 08:07:52;;;;;;;5.45;4.95;;;;;;;27.32;43.48;95151.03;6222640;28;110494;-63
2023/08/17 08:10:55;;;;;;;5.68;5.10;;;;;;;27.39;42.61;95145.88;6231662;28;109796;-61
2023/08/17 08:13:58;;;;;;;5.97;4.93;;;;;;;27.37;42.55;95134.66;6233988;27;109949;-62
2023/08/17 08:17:03;;;;;;;6.00;4.93;;;;;;;27.28;43.66;95140.19;6223123;27;109933;-62
2023/08/17 08:20:07;;;;;;;7.10;5.00;;;;;;;27.25;43.76;95137.34;6232177;27;109853;-63
2023/08/17 08:23:11;;;;;;;5.77;5.10;;;;;;;27.19;43.36;95131.41;6234017;27;110078;-63
2023/08/17 08:26:14;;;;;;;6.25;5.18;;;;;;;27.09;43.89;95138.03;6210371;27;110981;-63
2023/08/17 08:29:17;;;;;;;5.78;5.28;;;;;;;27.30;43.74;95126.41;6205657;27;110335;-63
2023/08/17 08:32:22;;;;;;;6.00;5.40;;;;;;;27.44;43.58;95127.63;6217994;27;111828;-64
2023/08/17 08:35:25;;;;;;;8.50;5.30;;;;;;;27.68;43.29;95129.47;6225447;27;109976;-62
2023/08/17 08:38:29;;;;;;;5.37;4.87;;;;;;;27.43;43.70;95120.69;6219825;27;109911;-63
2023/08/17 08:41:33;;;;;;;5.20;4.70;;;;;;;27.64;42.92;95125.13;6208203;28;110706;-63
2023/08/17 08:44:36;;;;;;;5.50;4.70;;;;;;;27.82;42.02;95125.63;6209536;28;109898;-63
2023/08/17 08:47:43;;;;;;;7.90;4.57;;;;;;;27.94;40.78;95117.56;6228706;27;109724;-61
2023/08/17 08:50:47;;;;;;;6.00;5.10;;;;;;;27.75;41.41;95115.47;6211529;27;110241;-68
2023/08/17 08:54:01;;;;;;;5.75;4.50;;;;;;;27.77;41.98;95113.22;6233547;27;110136;-69
2023/08/17 08:57:09;;;;;;;6.97;4.60;;;;;;;28.02;41.47;95114.72;6212459;27;109872;-70
2023/08/17 09:00:14;;;;;;;6.55;4.40;;;;;;;28.07;41.22;95121.00;6212407;28;110053;-68
2023/08/17 09:03:20;;;;;;;5.60;4.80;;;;;;;28.15;40.67;95106.59;6242778;27;109877;-69
2023/08/17 09:06:26;;;;;;;5.20;4.70;;;;;;;28.16;41.12;95108.16;6218658;27;109918;-69
2023/08/17 09:09:30;;;;;;;6.57;4.70;;;;;;;28.05;40.05;95097.88;6210130;28;109831;-69
2023/08/17 09:12:33;;;;;;;6.53;4.40;;;;;;;28.09;40.33;95099.91;6218692;28;109947;-69
2023/08/17 09:15:43;;;;;;;6.43;4.60;;;;;;;27.65;42.27;95092.50;6225735;28;111033;-68
2023/08/17 09:18:48;;;;;;;5.25;4.40;;;;;;;27.72;42.01;95100.81;6219575;28;109872;-69
2023/08/17 09:21:51;;;;;;;5.50;4.50;;;;;;;27.97;41.89;95084.59;6220140;27;111122;-69
2023/08/17 09:24:54;;;;;;;5.75;4.50;;;;;;;27.96;41.45;95080.34;6203898;28;112346;-68
2023/08/17 09:27:58;;;;;;;7.20;4.80;;;;;;;28.00;42.09;95070.47;6237362;27;110259;-68
2023/08/17 09:31:03;;;;;;;5.70;3.80;;;;;;;28.10;40.18;95075.34;6237601;27;110882;-69
2023/08/17 09:34:08;;;;;;;6.70;3.80;;;;;;;28.17;39.47;95080.13;6236257;27;109786;-68
2023/08/17 09:37:14;;;;;;;5.53;3.57;;;;;;;28.17;38.73;95080.13;6202370;28;109820;-69
2023/08/17 09:40:17;;;;;;;4.60;3.50;;;;;;;28.21;38.52;95075.63;6214917;28;109930;-68
2023/08/17 09:43:27;;;;;;;6.30;3.20;;;;;;;28.18;38.34;95057.47;6211270;28;109724;-68
2023/08/17 09:46:31;;;;;;;4.10;3.28;;;;;;;28.15;38.97;95067.03;6201142;28;109934;-68
2023/08/17 09:49:35;;;;;;;5.47;3.50;;;;;;;28.08;39.33;95060.69;6212020;28;110061;-70
2023/08/17 09:52:40;;;;;;;5.70;3.97;;;;;;;28.03;39.61;95062.47;6234672;28;109793;-69
2023/08/17 09:55:43;;;;;;;4.05;3.60;;;;;;;28.15;39.29;95055.47;6236683;27;109925;-69
2023/08/17 09:58:47;;;;;;;4.82;3.22;;;;;;;28.15;38.13;95060.88;6225033;27;110849;-69
2023/08/17 10:01:51;;;;;;;3.92;3.00;;;;;;;28.20;37.42;95050.63;6239299;27;111165;-62
2023/08/17 10:05:00;;;;;;;4.00;3.17;;;;;;;28.15;37.27;95055.47;6240267;27;109740;-63
2023/08/17 10:08:04;;;;;;;3.70;3.13;;;;;;;28.25;36.65;95047.69;6212308;28;109796;-69
2023/08/17 10:11:09;;;;;;;5.72;3.30;;;;;;;28.15;36.95;95042.81;6200677;28;110193;-69
2023/08/17 10:14:19;;;;;;;4.45;3.10;;;;;;;28.14;37.23;95038.56;6211141;28;110357;-69
2023/08/17 10:17:27;;;;;;;3.50;3.10;;;;;;;28.13;38.16;95038.91;6212231;28;109913;-70
2023/08/17 10:20:35;;;;;;;5.05;3.20;;;;;;;28.09;37.60;95038.03;6202844;28;109729;-67
2023/08/17 10:23:40;;;;;;;4.20;3.20;;;;;;;28.08;38.53;95037.25;6212663;28;109785;-68
2023/08/17 10:26:46;;;;;;;3.90;2.80;;;;;;;28.09;37.90;95030.75;6235382;28;110318;-69
2023/08/17 10:29:51;;;;;;;4.57;3.00;;;;;;;28.10;37.93;95036.91;6236692;27;109984;-68
2023/08/17 10:32:55;;;;;;;4.07;2.90;;;;;;;28.06;37.83;95031.44;6217627;27;108869;-68
2023/08/17 10:36:01;;;;;;;4.55;3.00;;;;;;;28.04;38.00;95037.13;6218472;27;108690;-67
2023/08/17 10:39:21;;;;;;;4.00;3.30;;;;;;;27.72;39.08;95030.88;6215547;27;110968;-66
2023/08/17 10:42:34;;;;;;;7.95;3.80;;;;;;;26.39;40.21;95023.72;6223316;27;109716;-67
2023/08/17 10:45:39;;;;;;;9.60;4.60;;;;;;;25.46;41.38;95025.06;6207394;28;110273;-68
2023/08/17 10:48:44;;;;;;;12.50;4.73;;;;;;;25.02;42.09;95011.94;6234993;27;109923;-67
2023/08/17 10:52:03;;;;;;;13.02;4.63;;;;;;;24.80;42.08;95020.28;6225107;27;109739;-68
2023/08/17 10:55:09;;;;;;;9.10;4.25;;;;;;;24.52;42.44;95021.78;6201364;28;109661;-69
2023/08/17 10:58:13;;;;;;;7.72;4.30;;;;;;;24.55;42.04;95018.50;6212381;28;109930;-68
2023/08/17 11:01:32;;;;;;;7.10;4.80;;;;;;;24.71;41.17;95016.88;6218220;27;109820;-68
2023/08/17 11:04:35;;;;;;;7.78;4.68;;;;;;;24.72;41.21;95013.09;6220276;27;109922;-67
2023/08/17 11:07:44;;;;;;;7.13;4.20;;;;;;;24.87;40.78;95004.50;6210501;27;109960;-67
2023/08/17 11:10:50;;;;;;;7.60;4.45;;;;;;;24.85;39.73;94995.97;6219532;27;110114;-67
2023/08/17 11:13:54;;;;;;;6.07;4.35;;;;;;;24.88;40.24;94994.56;6220876;27;110901;-71
2023/08/17 11:17:00;;;;;;;7.00;4.70;;;;;;;24.90;40.01;94995.03;6207377;28;110070;-71
2023/08/17 11:20:10;;;;;;;6.28;4.25;;;;;;;24.92;39.67;94998.16;6216049;27;109740;-69
2023/08/17 11:23:19;;;;;;;4.50;4.10;;;;;;;24.96;39.41;94997.19;6220225;27;110135;-70
2023/08/17 11:26:28;;;;;;;5.82;4.38;;;;;;;24.91;39.33;94992.03;6216457;28;109727;-70
2023/08/17 11:29:38;;;;;;;6.15;5.18;;;;;;;24.92;39.61;94995.50;6212690;27;109734;-70
2023/08/17 11:32:47;;;;;;;7.87;4.90;;;;;;;24.93;39.19;94991.69;6227990;27;109964;-70
2023/08/17 11:35:55;;;;;;;6.83;5.30;;;;;;;24.91;39.46;94981.31;6223352;27;109692;-71
2023/08/17 11:39:08;;;;;;;4.63;4.22;;;;;;;24.91;39.47;94989.34;6224810;27;109830;-71
2023/08/17 11:42:12;;;;;;;4.80;4.40;;;;;;;24.91;40.14;94981.31;6216447;27;110764;-70
2023/08/17 11:45:22;;;;;;;4.95;4.30;;;;;;;24.98;40.43;94973.53;6226344;27;110119;-70
2023/08/17 11:48:30;;;;;;;6.32;4.20;;;;;;;24.85;41.39;94979.91;6214169;27;110223;-71
2023/08/17 11:51:39;;;;;;;8.27;4.50;;;;;;;24.89;41.24;94977.41;6209229;27;110260;-71
2023/08/17 11:54:46;;;;;;;5.00;4.50;;;;;;;24.80;41.72;94969.41;6215685;27;109847;-71
2023/08/17 11:57:54;;;;;;;7.00;4.45;;;;;;;24.91;41.16;94972.50;6221245;28;109712;-71
2023/08/17 12:00:57;;;;;;;5.30;4.50;;;;;;;25.03;40.99;94973.38;6220841;27;109955;-71
2023/08/17 12:04:00;;;;;;;7.28;4.80;;;;;;;24.97;41.42;94968.50;6208718;27;109812;-71
2023/08/17 12:07:04;;;;;;;5.15;4.60;;;;;;;24.91;41.59;94975.97;6221865;27;109822;-71
2023/08/17 12:10:10;;;;;;;5.88;4.65;;;;;;;24.94;41.56;94974.53;6229300;27;110103;-70
2023/08/17 12:13:14;;;;;;;5.15;4.75;;;;;;;24.90;41.43;94966.38;6219160;27;109446;-71
2023/08/17 12:16:18;;;;;;;5.70;5.20;;;;;;;24.60;42.06;94965.56;6214374;27;110471;-70
2023/08/17 12:19:26;;;;;;;7.00;5.47;;;;;;;24.64;42.18;94960.34;6230182;27;129093;-70
2023/08/17 12:22:29;;;;;;;5.72;5.20;;;;;;;24.62;42.04;94957.22;6227444;27;110305;-71
2023/08/17 12:25:33;;;;;;;6.20;5.47;;;;;;;24.62;42.22;94965.25;6218988;27;109753;-70
2023/08/17 12:28:36;;;;;;;7.23;5.37;;;;;;;24.77;41.91;94964.72;6180598;27;110025;-71
2023/08/17 12:31:40;;;;;;;6.77;5.20;;;;;;;24.84;41.88;94950.81;6189981;28;110141;-71
2023/08/17 12:34:43;;;;;;;6.03;5.30;;;;;;;24.84;41.44;94950.81;6197861;28;109794;-71
2023/08/17 12:37:46;;;;;;;5.70;5.20;;;;;;;24.82;41.84;94959.16;6199401;28;109955;-69
2023/08/17 12:40:51;;;;;;;6.05;5.20;;;;;;;24.79;41.51;94952.56;6189746;28;109879;-68
2023/08/17 12:43:54;;;;;;;5.90;5.30;;;;;;;24.77;41.90;94954.78;6187171;28;110053;-70
2023/08/17 12:46:57;;;;;;;6.60;5.32;;;;;;;24.81;42.13;94960.28;6190249;28;110218;-70
2023/08/17 12:50:01;;;;;;;7.20;5.90;;;;;;;24.84;42.10;94956.94;6194849;28;110120;-67
2023/08/17 12:53:04;;;;;;;8.45;5.70;;;;;;;24.81;42.07;94957.59;6192977;28;110089;-70
2023/08/17 12:56:09;;;;;;;8.90;5.50;;;;;;;24.76;41.92;94963.94;6199264;28;109767;-69
2023/08/17 12:59:12;;;;;;;16.27;6.20;;;;;;;24.81;42.26;94954.13;6188346;28;109971;-68
2023/08/17 13:02:15;;;;;;;13.03;5.50;;;;;;;24.92;41.85;94956.13;6199606;28;112253;-70
2023/08/17 13:05:18;;;;;;;11.43;5.40;;;;;;;24.89;42.07;94947.97;6184970;28;109817;-70
2023/08/17 13:08:21;;;;;;;9.17;5.33;;;;;;;24.82;42.26;94961.84;6191388;28;110113;-71
2023/08/17 13:11:26;;;;;;;10.13;5.80;;;;;;;24.90;41.78;94969.03;6178635;28;109716;-71
2023/08/17 13:14:29;;;;;;;10.15;5.90;;;;;;;25.03;41.52;94967.19;6191654;28;111640;-71
2023/08/17 13:17:32;;;;;;;8.77;6.35;;;;;;;25.00;41.18;94965.19;6194343;28;109829;-71
2023/08/17 13:20:36;;;;;;;9.73;5.93;;;;;;;25.03;40.90;94962.66;6197166;28;110039;-71
2023/08/17 13:23:40;;;;;;;6.57;5.80;;;;;;;24.60;42.29;94959.44;6185868;28;109751;-71
2023/08/17 13:26:44;;;;;;;8.27;5.70;;;;;;;24.60;42.37;94957.53;6204591;28;109837;-70
2023/08/17 13:29:48;;;;;;;8.33;5.90;;;;;;;24.90;41.74;94952.97;6184613;28;110195;-70
2023/08/17 13:32:52;;;;;;;9.25;5.90;;;;;;;24.90;42.02;94960.22;6187748;28;109898;-67
2023/08/17 13:35:55;;;;;;;9.20;6.10;;;;;;;24.83;41.83;94955.38;6178526;28;110056;-67
2023/08/17 13:38:58;;;;;;;9.20;5.60;;;;;;;24.85;41.71;94958.50;6184311;28;108628;-68
2023/08/17 13:42:03;;;;;;;7.15;5.55;;;;;;;24.89;41.44;94962.13;6190526;28;111385;-67
2023/08/17 13:45:07;;;;;;;7.28;5.40;;;;;;;24.81;41.41;94960.28;6182553;28;109992;-68
2023/08/17 13:48:10;;;;;;;6.78;5.80;;;;;;;24.80;41.26;94958.72;6183426;28;109912;-67
2023/08/17 13:51:13;;;;;;;6.57;5.40;;;;;;;24.93;41.24;94957.69;6183144;28;109972;-66
2023/08/17 13:54:17;;;;;;;7.53;5.67;;;;;;;25.02;40.99;94958.38;6198425;28;110183;-66
2023/08/17 13:57:21;;;;;;;6.20;5.60;;;;;;;25.11;40.97;94966.38;6196095;28;112203;-67
2023/08/17 14:00:26;;;;;;;7.07;5.25;;;;;;;24.91;41.57;94967.94;6192862;28;110315;-67
2023/08/17 14:03:29;;;;;;;5.95;5.35;;;;;;;25.08;41.10;94962.47;6191873;28;110387;-68
2023/08/17 14:06:33;;;;;;;7.07;5.68;;;;;;;25.09;40.68;94958.66;6211028;28;109836;-67
2023/08/17 14:09:37;;;;;;;6.32;5.72;;;;;;;25.09;40.61;94960.56;6194498;28;111107;-68
2023/08/17 14:12:41;;;;;;;6.13;5.50;;;;;;;25.11;40.80;94965.59;6192787;28;108809;-69
2023/08/17 14:15:44;;;;;;;7.85;5.60;;;;;;;25.07;41.35;94955.53;6193930;28;110719;-69